OIII/THR METAR and TAF weather

Enter ICAO airport designator
Station Type Date Time Source
OIII METAR 2019/08/18 09:00 UTC NOAA

OIII 180900Z 13006KT CAVOK 33/M05 Q1014 A2994 NOSIG


Station Type Date Time Source
OIII Decoded METAR 2019/08/18 09:00 UTC NOAA

Station name not available
Aug 18, 2019 - 05:00 AM EDT / 2019.08.18 0900 UTC
Wind: from the SE (130 degrees) at 7 MPH (6 KT):0
Visibility: greater than 7 mile(s):0
Temperature: 91 F (33 C)
Dew Point: 23 F (-5 C)
Relative Humidity: 8%
Pressure (altimeter): 29.94 in. Hg (1013 hPa)
ob: OIII 180900Z 13006KT CAVOK 33/M05 Q1014 A2994 NOSIG
cycle: 9

Station Type Date Time Source
OIII TAF 2019/08/18 06:28 UTC NOAA

TAF OIII 180510Z 1806/1912 03008KT 8000 NSC

Example: see airport list